Terminal Aerodrome Forecast
Issued by NWS Dallas/Fort Worth, TX

Home | Current Version | Previous Version | Text Only | Print | Product List | Glossary On
Versions: 1 2 3 4 5 6 7 8 9 10 11 12 13 14 15 16 17 18 19 20 21 22 23 24 25 26 27 28 29 30 31
000
FTUS44 KFWD 180700 AAA
TAFACT
TAF AMD
KACT 180701Z 1807/1906 20010KT P6SM BKN006
     FM181000 17006KT 4SM BR VCSH OVC008
     FM181900 18006KT P6SM VCTS SCT030CB
     FM190000 15003KT P6SM BKN120=

USA.gov is the U.S. government's official web portal to all federal, state and local government web resources and services.